Time;durP1;ratioP1;P1;durP2;ratioP2;P2;SDS_P1;SDS_P2;PMS_P1;PMS_P2;Temp;Humidity;BMP_temperature;BMP_pressure;BME280_temperature;BME280_humidity;BME280_pressure;Samples;Min_cycle;Max_cycle;Signal;HPM_P1;HPM_P2
2022/08/09 00:00:11;;;;;;;0.20;0.10;;;;;;;;;;6307544;22;20342;-85
2022/08/09 00:02:37;;;;;;;0.20;0.10;;;;;;;;;;6307551;22;20377;-84
2022/08/09 00:05:03;;;;;;;0.20;0.10;;;;;;;;;;6308180;22;20453;-85
2022/08/09 00:07:29;;;;;;;0.20;0.10;;;;;;;;;;6307066;22;20037;-85
2022/08/09 00:09:56;;;;;;;0.20;0.10;;;;;;;;;;6281568;22;20438;-84
2022/08/09 00:12:22;;;;;;;0.20;0.10;;;;;;;;;;6359752;22;20021;-85
2022/08/09 00:14:48;;;;;;;0.20;0.10;;;;;;;;;;6308591;22;20033;-83
2022/08/09 00:17:14;;;;;;;0.20;0.10;;;;;;;;;;6307823;22;20017;-84
2022/08/09 00:19:40;;;;;;;0.20;0.10;;;;;;;;;;6308226;22;20011;-82
2022/08/09 00:22:06;;;;;;;0.20;0.10;;;;;;;;;;6282488;22;20451;-84
2022/08/09 00:24:32;;;;;;;0.20;0.10;;;;;;;;;;6282571;22;20014;-85
2022/08/09 00:26:59;;;;;;;0.20;0.10;;;;;;;;;;6307499;22;20010;-86
2022/08/09 00:29:26;;;;;;;0.20;0.10;;;;;;;;;;6308412;22;20088;-85
2022/08/09 00:31:52;;;;;;;0.20;0.10;;;;;;;;;;6359453;22;20013;-85
2022/08/09 00:34:19;;;;;;;0.20;0.10;;;;;;;;;;6281193;22;20422;-85
2022/08/09 00:36:45;;;;;;;0.20;0.10;;;;;;;;;;6306009;22;20029;-86
2022/08/09 00:39:11;;;;;;;0.25;0.10;;;;;;;;;;6307215;22;20038;-84
2022/08/09 00:41:46;;;;;;;0.20;0.10;;;;;;;;;;6358680;22;20011;-86
2022/08/09 00:44:13;;;;;;;0.20;0.10;;;;;;;;;;6305703;22;20015;-84
2022/08/09 00:46:40;;;;;;;0.20;0.10;;;;;;;;;;6282953;22;20025;-84
2022/08/09 00:49:06;;;;;;;0.20;0.10;;;;;;;;;;6361689;22;20015;-85
2022/08/09 00:51:34;;;;;;;0.20;0.10;;;;;;;;;;6283904;22;20026;-85
2022/08/09 00:54:01;;;;;;;0.20;0.10;;;;;;;;;;6334601;22;20186;-86
2022/08/09 00:56:29;;;;;;;0.20;0.10;;;;;;;;;;6307922;22;20010;-85
2022/08/09 00:58:58;;;;;;;0.20;0.10;;;;;;;;;;6308137;22;20529;-82
2022/08/09 01:01:29;;;;;;;0.20;0.10;;;;;;;;;;6307644;22;20010;-85
2022/08/09 01:04:01;;;;;;;0.20;0.10;;;;;;;;;;6308317;22;20014;-86
2022/08/09 01:06:30;;;;;;;0.20;0.10;;;;;;;;;;6307605;22;20260;-85
2022/08/09 01:08:59;;;;;;;0.20;0.10;;;;;;;;;;6359731;22;20283;-86
2022/08/09 01:11:46;;;;;;;0.20;0.10;;;;;;;;;;6307130;22;20476;-85
2022/08/09 01:14:17;;;;;;;0.20;0.10;;;;;;;;;;6306340;22;20466;-86
2022/08/09 01:16:44;;;;;;;0.20;0.20;;;;;;;;;;6360006;22;20010;-86
2022/08/09 01:19:29;;;;;;;0.20;0.10;;;;;;;;;;6309040;22;20050;-86
2022/08/09 01:22:07;;;;;;;0.20;0.10;;;;;;;;;;6308629;22;20478;-86
2022/08/09 01:24:48;;;;;;;0.20;0.10;;;;;;;;;;6308777;22;20354;-85
2022/08/09 01:27:17;;;;;;;0.20;0.10;;;;;;;;;;6335790;22;20481;-86
2022/08/09 01:29:48;;;;;;;0.20;0.10;;;;;;;;;;6309718;22;20454;-85
2022/08/09 01:32:16;;;;;;;0.45;0.30;;;;;;;;;;6308987;22;20017;-85
2022/08/09 01:34:43;;;;;;;0.20;0.10;;;;;;;;;;6361485;22;20089;-86
2022/08/09 01:37:12;;;;;;;0.20;0.10;;;;;;;;;;6309494;22;20099;-86
2022/08/09 01:39:45;;;;;;;0.20;0.10;;;;;;;;;;6309274;22;20015;-87
2022/08/09 01:42:15;;;;;;;0.20;0.10;;;;;;;;;;6309073;22;20297;-86
2022/08/09 01:44:41;;;;;;;0.20;0.08;;;;;;;;;;6282489;22;20014;-85
2022/08/09 01:47:08;;;;;;;0.20;0.10;;;;;;;;;;6335383;22;20013;-85
2022/08/09 01:49:35;;;;;;;0.20;0.10;;;;;;;;;;6309035;22;20029;-85
2022/08/09 01:52:04;;;;;;;0.20;0.20;;;;;;;;;;6308750;22;20045;-86
2022/08/09 01:54:41;;;;;;;0.20;0.10;;;;;;;;;;6308846;22;20067;-85
2022/08/09 01:57:18;;;;;;;0.20;0.10;;;;;;;;;;6307254;22;20042;-86
2022/08/09 01:59:45;;;;;;;0.20;0.10;;;;;;;;;;6308523;22;20042;-86
2022/08/09 02:02:15;;;;;;;0.20;0.10;;;;;;;;;;6283218;22;20233;-86
2022/08/09 02:04:41;;;;;;;0.20;0.10;;;;;;;;;;6308908;22;20012;-86
2022/08/09 02:07:11;;;;;;;0.20;0.10;;;;;;;;;;6308832;22;20025;-83
2022/08/09 02:09:49;;;;;;;0.20;0.10;;;;;;;;;;6309474;22;20011;-86
2022/08/09 02:12:17;;;;;;;0.20;0.10;;;;;;;;;;6308775;22;20042;-85
2022/08/09 02:14:44;;;;;;;0.20;0.10;;;;;;;;;;6308653;22;20161;-85
2022/08/09 02:17:12;;;;;;;0.20;0.10;;;;;;;;;;6229855;22;20036;-84
2022/08/09 02:19:38;;;;;;;0.20;0.10;;;;;;;;;;6175405;23;20066;-83
2022/08/09 02:22:09;;;;;;;0.20;0.10;;;;;;;;;;6176284;23;20161;-84
2022/08/09 02:24:37;;;;;;;0.20;0.00;;;;;;;;;;6201143;23;20076;-83
2022/08/09 02:27:06;;;;;;;0.20;0.10;;;;;;;;;;6177119;23;20009;-84
2022/08/09 02:29:37;;;;;;;0.20;0.10;;;;;;;;;;6225646;23;20065;-83
2022/08/09 02:32:05;;;;;;;0.20;0.10;;;;;;;;;;6176950;23;20048;-85
2022/08/09 02:34:33;;;;;;;0.20;0.10;;;;;;;;;;6177430;23;20055;-85
2022/08/09 02:37:00;;;;;;;0.20;0.10;;;;;;;;;;6176611;23;20479;-85
2022/08/09 02:39:30;;;;;;;0.20;0.10;;;;;;;;;;6177695;23;20020;-85
2022/08/09 02:41:58;;;;;;;0.20;0.10;;;;;;;;;;6176623;23;20012;-84
2022/08/09 02:44:30;;;;;;;0.20;0.10;;;;;;;;;;6177609;23;20023;-85
2022/08/09 02:46:57;;;;;;;0.52;0.43;;;;;;;;;;6176329;23;20023;-84
2022/08/09 02:49:23;;;;;;;0.20;0.10;;;;;;;;;;6176358;23;20035;-86
2022/08/09 02:51:53;;;;;;;0.20;0.10;;;;;;;;;;6176195;23;20016;-85
2022/08/09 02:54:20;;;;;;;0.20;0.10;;;;;;;;;;6226366;23;20472;-85
2022/08/09 02:56:47;;;;;;;0.20;0.10;;;;;;;;;;6176369;23;20015;-86
2022/08/09 02:59:13;;;;;;;0.20;0.10;;;;;;;;;;6201263;23;20016;-86
2022/08/09 03:01:41;;;;;;;0.20;0.10;;;;;;;;;;6176619;23;20051;-84
2022/08/09 03:04:08;;;;;;;0.20;0.10;;;;;;;;;;6176103;23;20031;-85
2022/08/09 03:06:34;;;;;;;0.28;0.10;;;;;;;;;;6176386;23;20016;-85
2022/08/09 03:09:01;;;;;;;0.20;0.10;;;;;;;;;;6176619;23;20043;-86
2022/08/09 03:11:27;;;;;;;0.20;0.10;;;;;;;;;;6176748;23;20012;-85
2022/08/09 03:13:54;;;;;;;0.20;0.10;;;;;;;;;;6176423;23;20013;-85
2022/08/09 03:16:21;;;;;;;0.20;0.10;;;;;;;;;;6175207;23;20091;-85
2022/08/09 03:18:47;;;;;;;0.20;0.10;;;;;;;;;;6175399;23;20013;-85
2022/08/09 03:21:18;;;;;;;0.20;0.00;;;;;;;;;;6176877;23;20013;-85
2022/08/09 03:23:45;;;;;;;0.20;0.08;;;;;;;;;;6176171;23;20099;-84
2022/08/09 03:26:15;;;;;;;0.20;0.10;;;;;;;;;;6175754;23;20020;-85
2022/08/09 03:28:42;;;;;;;0.20;0.10;;;;;;;;;;6175251;23;20084;-85
2022/08/09 03:31:08;;;;;;;0.20;0.10;;;;;;;;;;6150608;23;20017;-85
2022/08/09 03:33:35;;;;;;;0.20;0.10;;;;;;;;;;6226541;23;20059;-85
2022/08/09 03:36:01;;;;;;;0.20;0.10;;;;;;;;;;6175688;23;20353;-85
2022/08/09 03:38:27;;;;;;;0.20;0.10;;;;;;;;;;6176759;23;20016;-85
2022/08/09 03:40:53;;;;;;;0.20;0.10;;;;;;;;;;6175896;23;20012;-86
2022/08/09 03:43:20;;;;;;;0.20;0.10;;;;;;;;;;6176089;23;20016;-86
2022/08/09 03:45:46;;;;;;;0.20;0.10;;;;;;;;;;6176381;23;20390;-86
2022/08/09 03:48:12;;;;;;;0.20;0.10;;;;;;;;;;6176952;23;20013;-87
2022/08/09 03:50:39;;;;;;;0.20;0.10;;;;;;;;;;6225826;23;20247;-86
2022/08/09 03:53:05;;;;;;;0.20;0.10;;;;;;;;;;6176674;22;20027;-87
2022/08/09 03:55:32;;;;;;;0.20;0.10;;;;;;;;;;6176586;23;20062;-85
2022/08/09 03:57:58;;;;;;;0.20;0.10;;;;;;;;;;6175533;23;20015;-87
2022/08/09 04:00:25;;;;;;;0.20;0.10;;;;;;;;;;6150431;23;20028;-87
2022/08/09 04:02:53;;;;;;;0.20;0.10;;;;;;;;;;6176426;23;20028;-87
2022/08/09 04:05:19;;;;;;;0.20;0.10;;;;;;;;;;6175956;23;20024;-87
2022/08/09 04:07:46;;;;;;;0.20;0.10;;;;;;;;;;6176550;23;20024;-86
2022/08/09 04:10:13;;;;;;;0.20;0.10;;;;;;;;;;6176011;23;20329;-86
2022/08/09 04:12:39;;;;;;;0.20;0.10;;;;;;;;;;6176219;23;20017;-85
2022/08/09 04:15:06;;;;;;;0.20;0.10;;;;;;;;;;6176764;23;20025;-86
2022/08/09 04:17:32;;;;;;;0.20;0.10;;;;;;;;;;6175099;23;20020;-86
2022/08/09 04:19:58;;;;;;;0.20;0.10;;;;;;;;;;6175834;23;20028;-86
2022/08/09 04:22:24;;;;;;;0.20;0.10;;;;;;;;;;6175724;23;20016;-87
2022/08/09 04:24:50;;;;;;;0.20;0.10;;;;;;;;;;6175589;23;20013;-86
2022/08/09 04:27:16;;;;;;;0.20;0.10;;;;;;;;;;6176612;23;20044;-85
2022/08/09 04:29:42;;;;;;;0.20;0.10;;;;;;;;;;6175533;23;20091;-86
2022/08/09 04:32:08;;;;;;;0.20;0.10;;;;;;;;;;6175774;23;20196;-85
2022/08/09 04:34:35;;;;;;;0.20;0.10;;;;;;;;;;6175596;23;20016;-86
2022/08/09 04:37:01;;;;;;;0.20;0.10;;;;;;;;;;6175622;23;20127;-86
2022/08/09 04:39:27;;;;;;;0.20;0.10;;;;;;;;;;6224871;23;20453;-86
2022/08/09 04:41:53;;;;;;;0.20;0.10;;;;;;;;;;6176673;23;20040;-84
2022/08/09 04:44:19;;;;;;;0.20;0.10;;;;;;;;;;6226401;23;20542;-85
2022/08/09 04:46:46;;;;;;;0.20;0.10;;;;;;;;;;6176464;23;20043;-86
2022/08/09 04:49:12;;;;;;;0.20;0.05;;;;;;;;;;6175765;23;20483;-87
2022/08/09 04:51:38;;;;;;;0.20;0.00;;;;;;;;;;6175242;23;20050;-87
2022/08/09 04:54:04;;;;;;;0.20;0.10;;;;;;;;;;6225587;23;20017;-85
2022/08/09 04:56:30;;;;;;;0.20;0.10;;;;;;;;;;6224309;22;20016;-86
2022/08/09 04:58:56;;;;;;;0.20;0.10;;;;;;;;;;6225831;23;20016;-85
2022/08/09 05:01:22;;;;;;;0.20;0.00;;;;;;;;;;6175361;23;20028;-87
2022/08/09 05:03:49;;;;;;;0.20;0.10;;;;;;;;;;6175515;23;20092;-85
2022/08/09 05:06:15;;;;;;;0.20;0.10;;;;;;;;;;6176504;23;20468;-85
2022/08/09 05:08:41;;;;;;;0.20;0.10;;;;;;;;;;6175804;23;20504;-84
2022/08/09 05:11:07;;;;;;;0.20;0.10;;;;;;;;;;6173789;23;20013;-86
2022/08/09 05:13:34;;;;;;;0.20;0.10;;;;;;;;;;6200580;23;20012;-84
2022/08/09 05:16:00;;;;;;;0.30;0.30;;;;;;;;;;6175355;23;20023;-84
2022/08/09 05:18:32;;;;;;;0.20;0.10;;;;;;;;;;6176401;23;20012;-86
2022/08/09 05:20:58;;;;;;;0.20;0.10;;;;;;;;;;6175499;23;20420;-84
2022/08/09 05:23:25;;;;;;;0.20;0.10;;;;;;;;;;6227350;23;20036;-86
2022/08/09 05:25:51;;;;;;;0.20;0.10;;;;;;;;;;6176119;23;20596;-85
2022/08/09 05:28:17;;;;;;;0.20;0.10;;;;;;;;;;6176016;23;20017;-86
2022/08/09 05:30:43;;;;;;;0.20;0.10;;;;;;;;;;6225145;23;20012;-85
2022/08/09 05:33:10;;;;;;;0.20;0.10;;;;;;;;;;6225779;23;20046;-85
2022/08/09 05:35:36;;;;;;;0.20;0.10;;;;;;;;;;6225979;23;20066;-85
2022/08/09 05:38:02;;;;;;;0.20;0.10;;;;;;;;;;6226080;22;20013;-85
2022/08/09 05:40:28;;;;;;;0.20;0.00;;;;;;;;;;6174691;23;20509;-84
2022/08/09 05:42:55;;;;;;;0.20;0.10;;;;;;;;;;6226969;23;20020;-86
2022/08/09 05:45:21;;;;;;;0.20;0.10;;;;;;;;;;6152286;23;20085;-84
2022/08/09 05:47:47;;;;;;;0.20;0.10;;;;;;;;;;6175810;23;20028;-85
2022/08/09 05:50:13;;;;;;;0.20;0.10;;;;;;;;;;6225959;23;20408;-84
2022/08/09 05:52:40;;;;;;;0.20;0.10;;;;;;;;;;6175410;23;20016;-85
2022/08/09 05:55:06;;;;;;;0.20;0.10;;;;;;;;;;6150398;23;20021;-86
2022/08/09 05:57:33;;;;;;;0.20;0.10;;;;;;;;;;6174658;23;20009;-85
2022/08/09 05:59:59;;;;;;;0.20;0.10;;;;;;;;;;6150403;23;20012;-86
2022/08/09 06:02:25;;;;;;;0.20;0.10;;;;;;;;;;6175741;23;20087;-85
2022/08/09 06:04:51;;;;;;;0.20;0.10;;;;;;;;;;6177450;23;20020;-85
2022/08/09 06:07:21;;;;;;;0.20;0.10;;;;;;;;;;6175585;23;20085;-86
2022/08/09 06:09:47;;;;;;;0.20;0.10;;;;;;;;;;6176559;23;20532;-85
2022/08/09 06:12:13;;;;;;;0.20;0.10;;;;;;;;;;6226205;23;20104;-85
2022/08/09 06:14:39;;;;;;;0.20;0.10;;;;;;;;;;6176716;23;20017;-83
2022/08/09 06:17:05;;;;;;;0.20;0.10;;;;;;;;;;6176936;23;20013;-85
2022/08/09 06:19:31;;;;;;;0.20;0.10;;;;;;;;;;6228426;22;20469;-84
2022/08/09 06:21:57;;;;;;;0.20;0.10;;;;;;;;;;6176236;23;20115;-85
2022/08/09 06:24:23;;;;;;;0.20;0.10;;;;;;;;;;6179151;23;20012;-85
2022/08/09 06:26:49;;;;;;;0.20;0.10;;;;;;;;;;6175886;23;20017;-85
2022/08/09 06:29:15;;;;;;;0.20;0.10;;;;;;;;;;6177880;23;20016;-86
2022/08/09 06:31:41;;;;;;;0.20;0.10;;;;;;;;;;6175898;23;20044;-85
2022/08/09 06:34:08;;;;;;;0.20;0.10;;;;;;;;;;6176957;23;20016;-85
2022/08/09 06:36:34;;;;;;;0.20;0.10;;;;;;;;;;6177229;23;20475;-85
2022/08/09 06:39:00;;;;;;;0.57;0.45;;;;;;;;;;6177625;23;20019;-85
2022/08/09 06:41:26;;;;;;;0.20;0.10;;;;;;;;;;6225273;23;20016;-85
2022/08/09 06:43:55;;;;;;;0.20;0.10;;;;;;;;;;6176669;23;20014;-87
2022/08/09 06:46:21;;;;;;;0.20;0.10;;;;;;;;;;6176981;22;20043;-85
2022/08/09 06:48:47;;;;;;;0.20;0.10;;;;;;;;;;6177299;23;20017;-84
2022/08/09 06:51:13;;;;;;;0.20;0.10;;;;;;;;;;6226540;23;20023;-85
2022/08/09 06:53:39;;;;;;;0.20;0.10;;;;;;;;;;6177174;23;20100;-84
2022/08/09 06:56:08;;;;;;;0.20;0.10;;;;;;;;;;6176397;23;20452;-84
2022/08/09 06:58:34;;;;;;;0.20;0.10;;;;;;;;;;6177330;23;20097;-84
2022/08/09 07:01:00;;;;;;;0.20;0.10;;;;;;;;;;6177121;23;20024;-85
2022/08/09 07:03:26;;;;;;;0.20;0.10;;;;;;;;;;6177460;23;20024;-84
2022/08/09 07:05:54;;;;;;;0.20;0.10;;;;;;;;;;6177696;23;20017;-84
2022/08/09 07:08:21;;;;;;;0.20;0.10;;;;;;;;;;6227505;22;20013;-85
2022/08/09 07:10:47;;;;;;;0.20;0.10;;;;;;;;;;6228052;22;20087;-84
2022/08/09 07:13:13;;;;;;;0.20;0.10;;;;;;;;;;6177516;23;20012;-84
2022/08/09 07:15:39;;;;;;;0.20;0.10;;;;;;;;;;6176047;23;20016;-87
2022/08/09 07:18:05;;;;;;;0.20;0.10;;;;;;;;;;6176408;23;20012;-87
2022/08/09 07:20:31;;;;;;;0.20;0.10;;;;;;;;;;6175330;23;20009;-86
2022/08/09 07:22:58;;;;;;;0.20;0.10;;;;;;;;;;6177100;23;20021;-85
2022/08/09 07:25:24;;;;;;;0.20;0.10;;;;;;;;;;6176018;23;20013;-85
2022/08/09 07:27:50;;;;;;;0.30;0.25;;;;;;;;;;6176519;23;20017;-85
2022/08/09 07:30:16;;;;;;;0.20;0.10;;;;;;;;;;6177488;23;20483;-86
2022/08/09 07:32:42;;;;;;;0.20;0.10;;;;;;;;;;6177443;23;20020;-84
2022/08/09 07:35:09;;;;;;;0.20;0.10;;;;;;;;;;6151638;23;20235;-84
2022/08/09 07:37:35;;;;;;;0.20;0.10;;;;;;;;;;6176738;23;20453;-84
2022/08/09 07:40:02;;;;;;;0.20;0.10;;;;;;;;;;6176449;23;20091;-83
2022/08/09 07:42:28;;;;;;;0.20;0.10;;;;;;;;;;6175603;23;20016;-84
2022/08/09 07:44:54;;;;;;;0.20;0.10;;;;;;;;;;6226833;23;20016;-86
2022/08/09 07:47:21;;;;;;;0.20;0.10;;;;;;;;;;6176238;23;20025;-85
2022/08/09 07:49:47;;;;;;;0.20;0.10;;;;;;;;;;6226362;22;20020;-84
2022/08/09 07:52:18;;;;;;;0.20;0.10;;;;;;;;;;6174356;23;20025;-85
2022/08/09 07:54:44;;;;;;;0.20;0.10;;;;;;;;;;6177107;23;20021;-86
2022/08/09 07:57:13;;;;;;;0.20;0.10;;;;;;;;;;6153667;22;20554;-88
2022/08/09 07:59:39;;;;;;;0.20;0.10;;;;;;;;;;6176034;23;20048;-84
2022/08/09 08:02:11;;;;;;;0.20;0.10;;;;;;;;;;6176796;23;20013;-86
2022/08/09 08:04:43;;;;;;;0.20;0.10;;;;;;;;;;6176816;23;20280;-85
2022/08/09 08:07:41;;;;;;;0.20;0.10;;;;;;;;;;6178267;23;20013;-85
2022/08/09 08:10:08;;;;;;;0.20;0.10;;;;;;;;;;6177355;23;20052;-87
2022/08/09 08:12:34;;;;;;;0.20;0.10;;;;;;;;;;6227429;23;20043;-84
2022/08/09 08:15:00;;;;;;;0.20;0.10;;;;;;;;;;6227743;23;20036;-85
2022/08/09 08:17:26;;;;;;;0.20;0.10;;;;;;;;;;6162164;22;20036;-84
2022/08/09 08:19:52;;;;;;;0.20;0.10;;;;;;;;;;6120591;23;20036;-82
2022/08/09 08:22:19;;;;;;;0.20;0.10;;;;;;;;;;6121010;23;20009;-84
2022/08/09 08:24:46;;;;;;;0.20;0.10;;;;;;;;;;6145834;22;20020;-86
2022/08/09 08:27:12;;;;;;;0.20;0.10;;;;;;;;;;6157256;22;20313;-84
2022/08/09 08:29:38;;;;;;;0.20;0.10;;;;;;;;;;6146749;23;20013;-84
2022/08/09 08:32:10;;;;;;;0.20;0.00;;;;;;;;;;6123215;23;20017;-83
2022/08/09 08:34:36;;;;;;;0.20;0.10;;;;;;;;;;6125548;23;20025;-85
2022/08/09 08:37:02;;;;;;;0.20;0.10;;;;;;;;;;6127308;23;20138;-84
2022/08/09 08:39:29;;;;;;;0.20;0.10;;;;;;;;;;6125982;23;20017;-86
2022/08/09 08:41:55;;;;;;;0.20;0.10;;;;;;;;;;6122851;23;20051;-86
2022/08/09 08:44:21;;;;;;;0.20;0.10;;;;;;;;;;6172250;22;20322;-86
2022/08/09 08:46:48;;;;;;;0.20;0.10;;;;;;;;;;6099209;23;20096;-85
2022/08/09 08:49:14;;;;;;;0.20;0.10;;;;;;;;;;6123275;23;20032;-87
2022/08/09 08:51:40;;;;;;;0.20;0.10;;;;;;;;;;6120798;23;20017;-87
2022/08/09 08:54:08;;;;;;;0.20;0.10;;;;;;;;;;6120148;23;20056;-83
2022/08/09 08:56:37;;;;;;;0.20;0.10;;;;;;;;;;6122035;23;20406;-86
2022/08/09 08:59:10;;;;;;;0.20;0.10;;;;;;;;;;6249899;22;20019;-82
2022/08/09 09:01:37;;;;;;;0.20;0.10;;;;;;;;;;6171290;22;20013;-87
2022/08/09 09:04:04;;;;;;;0.20;0.10;;;;;;;;;;6121376;23;20611;-83
2022/08/09 09:06:31;;;;;;;0.20;0.10;;;;;;;;;;6120849;23;20571;-84
2022/08/09 09:08:57;;;;;;;0.20;0.10;;;;;;;;;;6121364;23;20013;-83
2022/08/09 09:11:24;;;;;;;0.20;0.10;;;;;;;;;;6121146;23;20020;-84
2022/08/09 09:13:52;;;;;;;0.20;0.10;;;;;;;;;;6099122;23;20017;-85
2022/08/09 09:16:18;;;;;;;0.20;0.10;;;;;;;;;;6121437;23;20056;-85
2022/08/09 09:18:44;;;;;;;0.20;0.10;;;;;;;;;;6122125;23;20013;-84
2022/08/09 09:21:10;;;;;;;0.20;0.10;;;;;;;;;;6147096;23;20013;-82
2022/08/09 09:23:45;;;;;;;0.20;0.10;;;;;;;;;;6097716;23;20021;-87
2022/08/09 09:26:12;;;;;;;0.20;0.10;;;;;;;;;;6122221;23;20389;-86
2022/08/09 09:28:42;;;;;;;0.20;0.10;;;;;;;;;;6123213;23;20196;-85
2022/08/09 09:31:12;;;;;;;0.20;0.10;;;;;;;;;;6121819;23;20410;-85
2022/08/09 09:33:38;;;;;;;0.20;0.10;;;;;;;;;;6121272;23;20021;-84
2022/08/09 09:36:12;;;;;;;0.20;0.10;;;;;;;;;;6121021;23;20013;-86
2022/08/09 09:38:44;;;;;;;0.20;0.10;;;;;;;;;;6122983;23;20349;-86
2022/08/09 09:41:32;;;;;;;0.20;0.10;;;;;;;;;;6122672;23;20017;-85
2022/08/09 09:43:58;;;;;;;0.20;0.10;;;;;;;;;;6148084;23;20020;-86
2022/08/09 09:46:32;;;;;;;0.20;0.10;;;;;;;;;;6253093;22;20013;-88
2022/08/09 09:49:03;;;;;;;0.20;0.10;;;;;;;;;;6123735;23;20027;-87
2022/08/09 09:51:29;;;;;;;0.20;0.10;;;;;;;;;;6148539;22;20047;-85
2022/08/09 09:54:09;;;;;;;0.20;0.10;;;;;;;;;;6148217;23;20025;-85
2022/08/09 09:56:37;;;;;;;0.20;0.10;;;;;;;;;;6172709;22;20013;-87
2022/08/09 09:59:06;;;;;;;0.20;0.10;;;;;;;;;;6123658;23;20038;-85
2022/08/09 10:01:33;;;;;;;0.20;0.10;;;;;;;;;;6171834;23;20013;-85
2022/08/09 10:03:59;;;;;;;0.20;0.10;;;;;;;;;;6122576;23;20726;-86
2022/08/09 10:06:27;;;;;;;0.20;0.10;;;;;;;;;;6172998;22;20028;-86
2022/08/09 10:08:58;;;;;;;0.20;0.10;;;;;;;;;;6171649;23;20013;-85
2022/08/09 10:11:25;;;;;;;0.20;0.10;;;;;;;;;;6122195;23;20070;-83
2022/08/09 10:13:52;;;;;;;0.20;0.10;;;;;;;;;;6122465;23;20032;-86
2022/08/09 10:16:27;;;;;;;0.20;0.10;;;;;;;;;;6122229;23;20457;-85
2022/08/09 10:18:54;;;;;;;0.20;0.10;;;;;;;;;;6172266;22;20583;-84
2022/08/09 10:21:22;;;;;;;0.20;0.10;;;;;;;;;;6121861;23;20069;-85
2022/08/09 10:23:48;;;;;;;0.20;0.10;;;;;;;;;;6121690;23;20048;-83
2022/08/09 10:26:15;;;;;;;0.20;0.10;;;;;;;;;;6123480;23;20019;-83
2022/08/09 10:28:42;;;;;;;0.20;0.10;;;;;;;;;;6251754;22;20009;-85
2022/08/09 10:31:09;;;;;;;0.20;0.10;;;;;;;;;;6121561;23;20020;-84
2022/08/09 10:33:35;;;;;;;0.20;0.10;;;;;;;;;;6171378;22;20205;-86
2022/08/09 10:36:02;;;;;;;0.20;0.10;;;;;;;;;;6172141;22;20009;-84
2022/08/09 10:38:29;;;;;;;0.20;0.10;;;;;;;;;;6122799;23;20111;-85
2022/08/09 10:40:55;;;;;;;0.20;0.10;;;;;;;;;;6122622;23;20092;-83
2022/08/09 10:43:21;;;;;;;0.20;0.10;;;;;;;;;;6098714;23;20454;-86
2022/08/09 10:45:47;;;;;;;0.20;0.10;;;;;;;;;;6122033;23;20070;-84
2022/08/09 10:48:16;;;;;;;0.20;0.10;;;;;;;;;;6121415;23;20020;-82
2022/08/09 10:53:51;;;;;;;0.20;0.10;;;;;;;;;;6172231;23;20021;-84
2022/08/09 10:56:21;;;;;;;0.20;0.10;;;;;;;;;;6122799;23;20020;-84
2022/08/09 10:58:47;;;;;;;0.20;0.10;;;;;;;;;;6146520;22;20017;-84
2022/08/09 11:01:31;;;;;;;0.20;0.10;;;;;;;;;;6123781;23;20013;-84
2022/08/09 11:04:10;;;;;;;0.20;0.10;;;;;;;;;;6122523;23;20044;-83
2022/08/09 11:06:36;;;;;;;0.20;0.10;;;;;;;;;;6170639;22;20021;-85
2022/08/09 11:09:06;;;;;;;0.20;0.10;;;;;;;;;;6125178;23;20091;-84
2022/08/09 11:11:51;;;;;;;0.20;0.10;;;;;;;;;;6145726;22;20066;-84
2022/08/09 11:14:43;;;;;;;0.20;0.10;;;;;;;;;;6172849;23;20097;-83
2022/08/09 11:17:12;;;;;;;0.20;0.10;;;;;;;;;;6099803;23;20013;-84
2022/08/09 11:19:51;;;;;;;0.20;0.10;;;;;;;;;;6173010;23;20017;-85
2022/08/09 11:22:17;;;;;;;0.20;0.10;;;;;;;;;;6123768;23;20078;-84
2022/08/09 11:25:04;;;;;;;0.20;0.10;;;;;;;;;;6122267;23;20040;-85
2022/08/09 11:27:31;;;;;;;0.20;0.10;;;;;;;;;;6146895;23;20096;-88
2022/08/09 11:30:00;;;;;;;0.20;0.10;;;;;;;;;;6123428;23;20102;-85
2022/08/09 11:32:43;;;;;;;0.20;0.10;;;;;;;;;;6146422;23;20545;-84
2022/08/09 11:35:27;;;;;;;0.20;0.10;;;;;;;;;;6121909;23;20016;-84
2022/08/09 11:37:54;;;;;;;0.20;0.10;;;;;;;;;;6120891;23;20041;-87
2022/08/09 11:40:31;;;;;;;0.20;0.10;;;;;;;;;;6171204;23;20417;-82
2022/08/09 11:43:00;;;;;;;0.20;0.10;;;;;;;;;;6146725;22;20055;-85
2022/08/09 11:45:28;;;;;;;0.20;0.10;;;;;;;;;;6146795;23;20516;-84
2022/08/09 11:48:14;;;;;;;0.20;0.10;;;;;;;;;;6146165;23;20271;-84
2022/08/09 11:50:56;;;;;;;0.20;0.10;;;;;;;;;;6146665;23;20071;-85
2022/08/09 11:53:23;;;;;;;0.20;0.10;;;;;;;;;;6121667;23;20465;-86
2022/08/09 11:55:50;;;;;;;0.20;0.10;;;;;;;;;;6121332;23;20375;-87
2022/08/09 11:58:16;;;;;;;0.20;0.10;;;;;;;;;;6171226;22;20017;-83
2022/08/09 12:00:50;;;;;;;0.20;0.10;;;;;;;;;;6171600;23;20106;-84
2022/08/09 12:03:19;;;;;;;0.20;0.10;;;;;;;;;;6121986;23;20021;-85
2022/08/09 12:05:49;;;;;;;0.20;0.10;;;;;;;;;;6123171;23;20013;-86
2022/08/09 12:08:16;;;;;;;0.20;0.10;;;;;;;;;;6226060;22;20039;-85
2022/08/09 12:10:43;;;;;;;0.20;0.10;;;;;;;;;;6124185;22;20021;-85
2022/08/09 12:13:10;;;;;;;0.20;0.10;;;;;;;;;;6171223;22;20021;-83
2022/08/09 12:15:36;;;;;;;0.20;0.10;;;;;;;;;;6123080;23;20044;-86
2022/08/09 12:18:02;;;;;;;0.20;0.10;;;;;;;;;;6122010;23;20016;-86
2022/08/09 12:20:29;;;;;;;0.20;0.10;;;;;;;;;;6121943;23;20416;-84
2022/08/09 12:23:02;;;;;;;0.20;0.10;;;;;;;;;;6122657;23;20146;-86
2022/08/09 12:25:29;;;;;;;0.20;0.10;;;;;;;;;;6122035;23;20066;-84
2022/08/09 12:28:08;;;;;;;0.30;0.30;;;;;;;;;;6147495;22;20021;-83
2022/08/09 12:30:34;;;;;;;0.20;0.10;;;;;;;;;;6172459;22;20020;-84
2022/08/09 12:33:01;;;;;;;0.20;0.10;;;;;;;;;;6171236;22;20043;-85
2022/08/09 12:35:27;;;;;;;0.20;0.10;;;;;;;;;;6170326;22;20009;-84
2022/08/09 12:37:56;;;;;;;0.20;0.05;;;;;;;;;;6121863;23;20066;-86
2022/08/09 12:40:27;;;;;;;0.20;0.10;;;;;;;;;;6170941;23;20550;-86
2022/08/09 12:42:54;;;;;;;0.20;0.10;;;;;;;;;;6121424;23;20096;-86
2022/08/09 12:45:20;;;;;;;0.20;0.10;;;;;;;;;;6122002;23;20092;-85
2022/08/09 12:47:49;;;;;;;0.20;0.10;;;;;;;;;;6122057;23;20040;-86
2022/08/09 12:50:18;;;;;;;0.20;0.10;;;;;;;;;;6146695;22;20016;-86
2022/08/09 12:52:51;;;;;;;0.20;0.10;;;;;;;;;;6096046;23;20021;-88
2022/08/09 12:55:29;;;;;;;0.20;0.10;;;;;;;;;;6121576;23;20024;-88
2022/08/09 12:57:55;;;;;;;0.20;0.10;;;;;;;;;;6145272;23;20058;-86
2022/08/09 13:00:23;;;;;;;0.20;0.10;;;;;;;;;;6122085;23;20017;-86
2022/08/09 13:02:54;;;;;;;0.20;0.10;;;;;;;;;;6121369;23;20346;-84
2022/08/09 13:05:21;;;;;;;0.20;0.10;;;;;;;;;;6124885;23;20049;-87
2022/08/09 13:08:09;;;;;;;0.20;0.10;;;;;;;;;;6121472;23;20453;-86
2022/08/09 13:10:48;;;;;;;0.20;0.10;;;;;;;;;;6122375;23;20051;-87
2022/08/09 13:13:14;;;;;;;0.20;0.10;;;;;;;;;;6123912;23;20032;-85
2022/08/09 13:16:11;;;;;;;0.20;0.10;;;;;;;;;;6123959;23;20013;-85
2022/08/09 13:18:55;;;;;;;0.20;0.10;;;;;;;;;;6147971;23;20349;-85
2022/08/09 13:21:25;;;;;;;0.20;0.10;;;;;;;;;;6173218;22;20488;-85
2022/08/09 13:24:18;;;;;;;0.20;0.10;;;;;;;;;;6123357;23;20091;-87
2022/08/09 13:26:46;;;;;;;0.20;0.10;;;;;;;;;;6172868;22;20071;-85
2022/08/09 13:29:16;;;;;;;0.20;0.10;;;;;;;;;;6172955;23;20096;-86
2022/08/09 13:31:59;;;;;;;0.20;0.10;;;;;;;;;;6124475;23;20021;-82
2022/08/09 13:34:26;;;;;;;0.20;0.10;;;;;;;;;;6171879;23;20017;-84
2022/08/09 13:36:53;;;;;;;0.20;0.10;;;;;;;;;;6122790;23;20340;-85
2022/08/09 13:39:22;;;;;;;0.20;0.10;;;;;;;;;;6147097;23;20013;-88
2022/08/09 13:41:48;;;;;;;0.20;0.10;;;;;;;;;;6123751;23;20013;-84
2022/08/09 13:44:14;;;;;;;0.20;0.10;;;;;;;;;;6123702;23;20047;-84
2022/08/09 13:46:40;;;;;;;0.20;0.10;;;;;;;;;;6121820;23;20352;-88
2022/08/09 13:49:09;;;;;;;0.20;0.10;;;;;;;;;;6123067;23;20025;-87
2022/08/09 13:51:35;;;;;;;0.20;0.10;;;;;;;;;;6099296;23;20637;-86
2022/08/09 13:54:01;;;;;;;0.20;0.10;;;;;;;;;;6146416;23;20024;-83
2022/08/09 13:56:27;;;;;;;0.20;0.10;;;;;;;;;;6147052;23;20019;-84
2022/08/09 13:58:53;;;;;;;0.20;0.10;;;;;;;;;;6121497;23;20017;-84
2022/08/09 14:01:20;;;;;;;0.20;0.10;;;;;;;;;;6121613;23;20498;-86
2022/08/09 14:03:46;;;;;;;0.20;0.10;;;;;;;;;;6121228;23;20021;-87
2022/08/09 14:06:14;;;;;;;0.20;0.10;;;;;;;;;;6171893;22;20028;-85
2022/08/09 14:08:40;;;;;;;0.20;0.10;;;;;;;;;;6171782;22;20043;-86
2022/08/09 14:11:07;;;;;;;0.20;0.10;;;;;;;;;;6123611;23;20021;-87
2022/08/09 14:13:33;;;;;;;0.20;0.10;;;;;;;;;;6122850;23;20020;-84
2022/08/09 14:15:59;;;;;;;0.20;0.10;;;;;;;;;;6123035;23;20017;-86
2022/08/09 14:18:26;;;;;;;0.20;0.10;;;;;;;;;;6172032;22;20024;-86
2022/08/09 14:20:52;;;;;;;0.20;0.10;;;;;;;;;;6124310;23;20052;-87
2022/08/09 14:23:19;;;;;;;0.20;0.10;;;;;;;;;;6099711;23;20013;-84
2022/08/09 14:25:45;;;;;;;0.20;0.10;;;;;;;;;;6171280;22;20017;-86
2022/08/09 14:28:11;;;;;;;0.20;0.10;;;;;;;;;;6122711;23;20438;-84
2022/08/09 14:30:37;;;;;;;0.20;0.10;;;;;;;;;;6170872;22;20043;-85
2022/08/09 14:33:03;;;;;;;0.20;0.10;;;;;;;;;;6123531;23;20044;-85
2022/08/09 14:35:29;;;;;;;0.20;0.10;;;;;;;;;;6172060;23;20067;-85
2022/08/09 14:37:56;;;;;;;0.20;0.10;;;;;;;;;;6122801;23;20025;-84
2022/08/09 14:40:22;;;;;;;0.20;0.10;;;;;;;;;;6123416;23;20462;-83
2022/08/09 14:42:48;;;;;;;0.20;0.10;;;;;;;;;;6123440;23;20357;-85
2022/08/09 14:45:14;;;;;;;0.20;0.10;;;;;;;;;;6122750;23;20107;-87
2022/08/09 14:47:40;;;;;;;0.20;0.10;;;;;;;;;;6172241;23;20524;-84
2022/08/09 14:50:07;;;;;;;0.20;0.10;;;;;;;;;;6123804;23;20032;-85
2022/08/09 14:52:34;;;;;;;0.20;0.10;;;;;;;;;;6122114;23;20020;-84